Time;durP1;ratioP1;P1;durP2;ratioP2;P2;SDS_P1;SDS_P2;PMS_P1;PMS_P2;Temp;Humidity;BMP_temperature;BMP_pressure;BME280_temperature;BME280_humidity;BME280_pressure;Samples;Min_cycle;Max_cycle;Signal;HPM_P1;HPM_P2
2023/11/12 00:02:09;;;;;;;9.20;8.10;;;;;;;6.77;91.58;99198.82;130219;1257;114748;-58
2023/11/12 00:05:11;;;;;;;11.10;7.10;;;;;;;6.75;91.50;99200.16;130119;1265;114823;-59
2023/11/12 00:08:13;;;;;;;7.80;6.70;;;;;;;6.75;91.52;99202.30;130182;1254;115342;-58
2023/11/12 00:11:19;;;;;;;10.50;7.20;;;;;;;6.74;91.59;99204.14;129941;1272;114895;-59
2023/11/12 00:14:21;;;;;;;10.50;7.00;;;;;;;6.74;91.57;99204.67;130151;1254;114743;-60
2023/11/12 00:17:24;;;;;;;7.60;6.60;;;;;;;6.74;91.47;99205.02;130150;1257;114689;-59
2023/11/12 00:20:28;;;;;;;7.80;6.70;;;;;;;6.72;91.64;99206.14;130175;1264;115106;-61
2023/11/12 00:23:30;;;;;;;9.10;7.00;;;;;;;6.73;91.52;99206.30;130117;1257;115115;-58
2023/11/12 00:26:32;;;;;;;8.20;6.90;;;;;;;6.73;91.61;99210.55;130334;1254;114696;-59
2023/11/12 00:29:34;;;;;;;8.60;6.60;;;;;;;6.74;91.77;99216.20;129847;1275;115175;-58
2023/11/12 00:32:36;;;;;;;9.20;6.50;;;;;;;6.74;91.70;99217.08;130089;1256;115077;-60
2023/11/12 00:35:39;;;;;;;7.40;6.70;;;;;;;6.75;91.65;99218.10;130066;1257;114726;-60
2023/11/12 00:38:41;;;;;;;10.50;7.00;;;;;;;6.76;91.72;99221.06;130306;1257;114704;-58
2023/11/12 00:41:44;;;;;;;8.40;7.10;;;;;;;6.77;91.46;99222.97;130281;1257;114803;-59
2023/11/12 00:44:48;;;;;;;10.10;7.20;;;;;;;6.77;91.94;99222.23;130062;1260;127991;-59
2023/11/12 00:47:50;;;;;;;9.40;7.10;;;;;;;6.78;91.63;99221.64;130195;1270;114661;-58
2023/11/12 00:50:53;;;;;;;8.20;7.40;;;;;;;6.79;91.61;99221.05;130050;1256;114871;-58
2023/11/12 00:53:54;;;;;;;10.30;7.90;;;;;;;6.79;91.67;99224.05;130020;1255;114789;-58
2023/11/12 00:56:57;;;;;;;9.60;7.30;;;;;;;6.80;91.57;99224.55;130241;1254;115138;-57
2023/11/12 00:59:59;;;;;;;8.60;7.70;;;;;;;6.81;91.53;99225.39;130083;1257;115075;-58
2023/11/12 01:03:04;;;;;;;9.90;7.80;;;;;;;6.80;91.65;99223.85;129751;1259;114678;-58
2023/11/12 01:06:06;;;;;;;9.00;7.70;;;;;;;6.81;91.52;99225.39;130128;1275;128943;-58
2023/11/12 01:09:11;;;;;;;9.70;8.00;;;;;;;6.81;91.59;99227.52;130182;1256;115367;-58
2023/11/12 01:12:13;;;;;;;10.10;8.20;;;;;;;6.82;91.37;99229.95;130072;1257;114749;-59
2023/11/12 01:15:16;;;;;;;10.80;8.50;;;;;;;6.82;91.50;99227.45;130192;1256;114704;-58
2023/11/12 01:18:18;;;;;;;9.10;7.60;;;;;;;6.82;91.42;99224.26;130147;1254;115289;-56
2023/11/12 01:21:20;;;;;;;12.50;8.70;;;;;;;6.81;91.23;99226.82;129917;1274;116178;-57
2023/11/12 01:24:22;;;;;;;10.30;8.70;;;;;;;6.81;91.29;99229.64;130087;1269;114701;-55
2023/11/12 01:27:26;;;;;;;10.70;8.50;;;;;;;6.80;91.27;99231.09;130087;1256;114966;-57
2023/11/12 01:30:28;;;;;;;12.70;9.00;;;;;;;6.80;91.21;99233.28;130292;1257;114737;-58
2023/11/12 01:33:31;;;;;;;11.40;8.70;;;;;;;6.79;91.40;99228.89;130270;1257;114770;-58
2023/11/12 01:36:33;;;;;;;10.60;9.20;;;;;;;6.79;91.42;99231.34;130161;1256;114838;-57
2023/11/12 01:39:36;;;;;;;11.70;9.30;;;;;;;6.79;91.40;99227.61;130133;1254;114702;-57
2023/11/12 01:43:51;;;;;;;14.20;9.60;;;;;;;6.79;91.36;99231.54;131327;1253;114709;-63
2023/11/12 01:47:29;;;;;;;14.00;10.00;;;;;;;6.78;91.38;99232.47;129954;1260;115301;-62
2023/11/12 01:51:23;;;;;;;11.90;9.60;;;;;;;6.78;91.38;99233.01;129107;1268;115005;-60
2023/11/12 01:55:24;;;;;;;13.80;10.60;;;;;;;6.77;91.13;99240.52;128502;1274;114822;-62
2023/11/12 01:59:08;;;;;;;11.80;9.80;;;;;;;6.78;91.29;99237.63;128201;1281;114905;-61
2023/11/12 02:03:12;;;;;;;13.00;10.60;;;;;;;6.80;91.24;99236.98;127535;1282;128847;-60
2023/11/12 02:06:42;;;;;;;11.70;9.90;;;;;;;6.81;91.31;99236.03;126496;1307;115442;-62
2023/11/12 02:10:15;;;;;;;12.20;9.60;;;;;;;6.81;91.10;99233.75;126551;1289;115041;-62
2023/11/12 02:13:33;;;;;;;16.40;11.70;;;;;;;6.81;90.97;99232.46;126826;1299;115015;-60
2023/11/12 02:16:40;;;;;;;17.10;12.40;;;;;;;6.81;90.95;99234.80;126649;1288;114873;-61
2023/11/12 02:20:46;;;;;;;13.40;10.90;;;;;;;6.80;90.95;99232.73;126567;1308;128708;-65
2023/11/12 02:24:27;;;;;;;15.40;10.60;;;;;;;6.80;90.86;99235.02;126596;1302;114918;-61
2023/11/12 02:28:12;;;;;;;13.30;10.50;;;;;;;6.81;90.96;99240.14;126403;1299;114939;-61
2023/11/12 02:32:02;;;;;;;;;;;;;;;;;;;;;
2023/11/12 02:35:39;;;;;;;;;;;;;;;;;;;;;
2023/11/12 02:39:43;;;;;;;12.20;8.90;;;;;;;6.79;90.87;99246.23;126705;1291;129041;-61
2023/11/12 02:43:45;;;;;;;13.40;9.00;;;;;;;6.79;90.85;99243.21;126451;1283;116654;-60
2023/11/12 02:47:46;;;;;;;12.90;9.80;;;;;;;6.80;90.62;99244.77;125901;1308;114908;-62
2023/11/12 02:51:38;;;;;;;9.40;7.60;;;;;;;6.79;90.73;99242.85;124927;1309;115018;-60
2023/11/12 02:55:22;;;;;;;12.50;8.20;;;;;;;6.79;90.66;99246.97;124996;1309;115425;-61
2023/11/12 02:59:01;;;;;;;15.00;8.50;;;;;;;6.79;90.64;99243.96;124993;1325;129834;-61
2023/11/12 03:06:43;;;;;;;11.90;8.30;;;;;;;6.78;90.33;99251.64;125709;1296;635951;-60
2023/11/12 03:10:20;;;;;;;12.00;8.10;;;;;;;6.75;90.18;99257.50;128654;1273;128703;-61
2023/11/12 03:14:20;;;;;;;;;;;;;;;;;;;;;
2023/11/12 03:18:04;;;;;;;12.70;8.50;;;;;;;6.69;90.27;99264.52;127986;1280;114893;-60
2023/11/12 03:21:52;;;;;;;9.00;7.70;;;;;;;6.65;89.97;99261.33;124236;1297;5410055;-60
2023/11/12 03:25:55;;;;;;;11.60;9.10;;;;;;;6.61;90.03;99261.36;128051;1281;114921;-60
2023/11/12 03:33:51;;;;;;;8.80;7.90;;;;;;;6.50;89.93;99263.34;127641;1281;128600;-60
2023/11/12 03:37:38;;;;;;;;;;;;;;;;;;;;;
2023/11/12 03:41:40;;;;;;;11.50;7.80;;;;;;;6.39;89.65;99267.04;126754;1292;115235;-61
2023/11/12 03:45:44;;;;;;;11.40;7.90;;;;;;;6.38;90.02;99271.52;126009;1295;114895;-60
2023/11/12 03:49:45;;;;;;;11.80;8.70;;;;;;;6.36;90.04;99272.55;125723;1302;114980;-61
2023/11/12 03:57:48;;;;;;;14.50;9.00;;;;;;;6.33;90.08;99268.08;124533;1329;116575;-60
2023/11/12 04:01:50;;;;;;;9.80;8.20;;;;;;;6.30;89.93;99269.26;124070;1316;114855;-60
2023/11/12 04:04:55;;;;;;;11.20;8.40;;;;;;;6.29;89.94;99269.88;124166;1329;115011;-61
2023/11/12 04:08:57;;;;;;;11.50;8.90;;;;;;;6.27;89.83;99271.55;124707;1313;115314;-61
2023/11/12 04:12:51;;;;;;;;;;;;;;;;;;;;;
2023/11/12 04:16:19;;;;;;;10.00;7.90;;;;;;;6.22;89.93;99269.80;123001;1335;115406;-61
2023/11/12 04:20:23;;;;;;;10.70;8.40;;;;;;;6.20;90.08;99269.70;123033;1345;115383;-61
2023/11/12 04:28:28;;;;;;;15.00;8.50;;;;;;;6.21;90.24;99270.23;125966;1292;636138;-63
2023/11/12 04:32:16;;;;;;;10.80;8.20;;;;;;;6.20;90.26;99273.09;128497;1278;128750;-63
2023/11/12 04:36:01;;;;;;;11.60;8.20;;;;;;;6.22;90.22;99269.29;128530;1272;114841;-61
2023/11/12 04:39:55;;;;;;;;;;;;;;;;;;;;;
2023/11/12 04:43:57;;;;;;;13.60;8.30;;;;;;;6.22;90.27;99271.77;121712;1319;114917;-62
2023/11/12 04:56:24;;;;;;;15.90;9.50;;;;;;;6.25;90.28;99272.50;126384;1290;636062;-61
2023/11/12 05:04:16;;;;;;;16.00;9.90;;;;;;;6.25;90.26;99278.73;127277;1284;115360;-61
2023/11/12 05:08:20;;;;;;;20.70;11.90;;;;;;;6.26;90.18;99281.36;123475;1301;5400592;-61
2023/11/12 05:11:52;;;;;;;;;;;;;;;;;;;;;
2023/11/12 05:15:14;;;;;;;23.00;11.60;;;;;;;6.25;90.43;99284.41;125744;1301;115154;-61
2023/11/12 05:19:07;;;;;;;18.40;11.80;;;;;;;6.24;90.29;99293.30;125359;1302;128379;-61
2023/11/12 05:27:22;;;;;;;18.90;12.20;;;;;;;6.18;89.83;99296.44;125575;1306;638357;-61
2023/11/12 05:31:25;;;;;;;17.50;10.90;;;;;;;6.08;89.84;99308.06;128553;1286;128994;-60
2023/11/12 05:35:20;;;;;;;13.60;10.60;;;;;;;6.00;89.60;99312.33;127823;1282;115261;-61
2023/11/12 05:39:13;;;;;;;;;;;;;;;;;;;;;
2023/11/12 05:43:04;;;;;;;;;;;;;;;;;;;;;
2023/11/12 05:46:55;;;;;;;17.90;11.50;;;;;;;5.92;90.36;99330.41;125396;1322;116554;-61
2023/11/12 05:55:28;;;;;;;;;;;;;;;;;;;;;
2023/11/12 05:59:21;;;;;;;16.00;9.80;;;;;;;5.97;90.36;99327.67;127739;1299;127909;-61
2023/11/12 06:03:16;;;;;;;20.20;11.80;;;;;;;5.99;90.52;99329.39;127160;1302;115340;-61
2023/11/12 06:07:18;;;;;;;16.30;11.00;;;;;;;6.01;90.47;99328.61;122510;1290;5607158;-60
2023/11/12 06:10:43;;;;;;;;;;;;;;;6.03;90.35;99335.44;125898;1306;114932;-61
2023/11/12 06:14:36;;;;;;;14.50;10.10;;;;;;;6.04;90.63;99337.66;126343;1295;114876;-61
2023/11/12 06:18:32;;;;;;;;;;;;;;;;;;;;;
2023/11/12 06:22:33;;;;;;;15.60;9.80;;;;;;;6.08;90.57;99338.92;124834;1318;115247;-61
2023/11/12 06:26:17;;;;;;;14.10;9.50;;;;;;;6.08;90.27;99339.79;123976;1319;115006;-61
2023/11/12 06:30:17;;;;;;;13.50;9.10;;;;;;;6.05;90.34;99343.98;124182;1317;115011;-60
2023/11/12 06:42:17;;;;;;;14.60;9.00;;;;;;;6.03;90.49;99350.69;128328;1282;128436;-60
2023/11/12 06:46:17;;;;;;;;;;;;;;;;;;;;;
2023/11/12 06:50:33;;;;;;;12.10;8.60;;;;;;;6.07;90.48;99357.54;124756;1314;5407991;-62
2023/11/12 06:54:06;;;;;;;;;;;;;;;;;;;;;
2023/11/12 06:58:06;;;;;;;;;;;;;;;;;;;;;
2023/11/12 07:06:01;;;;;;;19.10;13.20;;;;;;;6.25;90.97;99374.48;126313;1296;636027;-61
2023/11/12 07:09:55;;;;;;;;;;;;;;;;;;;;;
2023/11/12 07:13:34;;;;;;;19.70;15.50;;;;;;;6.32;90.62;99384.96;128754;1271;115293;-62
2023/11/12 07:17:38;;;;;;;25.60;16.90;;;;;;;6.36;90.68;99388.30;128387;1278;114867;-60
2023/11/12 07:21:40;;;;;;;43.40;21.40;;;;;;;6.42;90.62;99390.18;122514;1290;114945;-62
2023/11/12 07:25:42;;;;;;;27.90;12.70;;;;;;;6.46;90.67;99393.37;125823;1298;114846;-67
2023/11/12 07:29:19;;;;;;;;;;;;;;;;;;;;;
2023/11/12 07:33:11;;;;;;;;;;;;;;;;;;;;;
2023/11/12 07:36:58;;;;;;;;;;;;;;;;;;;;;
2023/11/12 07:45:21;;;;;;;;;;;;;;;;;;;;;
2023/11/12 07:49:25;;;;;;;10.90;7.80;;;;;;;6.75;90.26;99397.65;128705;1274;128953;-62
2023/11/12 07:53:05;;;;;;;13.30;7.90;;;;;;;6.80;90.33;99401.12;128602;1273;115199;-60
2023/11/12 07:57:02;;;;;;;13.00;8.30;;;;;;;6.83;90.20;99398.48;127833;1294;3630453;-62
2023/11/12 08:01:00;;;;;;;9.50;6.80;;;;;;;6.89;90.18;99405.13;128083;1289;114886;-63
2023/11/12 08:05:05;;;;;;;14.50;8.30;;;;;;;6.94;90.11;99407.95;127535;1296;114951;-60
2023/11/12 08:08:32;;;;;;;9.80;7.60;;;;;;;6.97;89.99;99415.95;126501;1292;129979;-66
2023/11/12 08:12:41;;;;;;;10.80;7.20;;;;;;;6.99;89.95;99417.60;126550;1293;115265;-65
2023/11/12 08:16:42;;;;;;;10.50;6.40;;;;;;;7.01;89.73;99418.24;125512;1320;114929;-66
2023/11/12 08:23:31;;;;;;;11.30;6.90;;;;;;;7.06;89.62;99422.05;125114;1324;114905;-61
2023/11/12 08:26:41;;;;;;;9.40;7.30;;;;;;;7.12;89.82;99424.77;125155;1315;129606;-62
2023/11/12 08:30:26;;;;;;;9.90;7.60;;;;;;;7.18;90.00;99423.97;125315;1322;115464;-67
2023/11/12 08:34:20;;;;;;;;;;;;;;;;;;;;;
2023/11/12 08:42:32;;;;;;;;;;;;;;;;;;;;;
2023/11/12 08:46:36;;;;;;;10.90;8.10;;;;;;;7.40;89.20;99436.91;128089;1273;129044;-62
2023/11/12 08:49:53;;;;;;;12.80;8.00;;;;;;;7.46;89.33;99442.64;126628;1284;115292;-61
2023/11/12 08:53:57;;;;;;;10.60;7.10;;;;;;;7.52;89.24;99439.50;127079;1289;114919;-61
2023/11/12 08:58:00;;;;;;;16.50;8.40;;;;;;;7.57;88.84;99445.30;122672;1292;114887;-61
2023/11/12 09:01:41;;;;;;;11.20;8.10;;;;;;;7.60;88.87;99450.63;125637;1301;114888;-60
2023/11/12 09:05:47;;;;;;;12.30;10.70;;;;;;;7.65;88.63;99448.64;125648;1319;115050;-61
2023/11/12 09:09:18;;;;;;;;;;;;;;;;;;;;;
2023/11/12 09:13:00;;;;;;;11.90;7.60;;;;;;;7.72;88.33;99449.13;125635;1301;115234;-61
2023/11/12 09:16:31;;;;;;;11.10;7.70;;;;;;;7.77;88.14;99447.29;125263;1323;114884;-61
2023/11/12 09:20:32;;;;;;;9.90;7.80;;;;;;;7.83;88.23;99451.76;124891;1317;114961;-61
2023/11/12 09:24:01;;;;;;;8.20;7.40;;;;;;;7.94;88.21;99451.91;124831;1325;114984;-61
2023/11/12 09:27:35;;;;;;;;;;;;;;;;;;;;;
2023/11/12 09:31:23;;;;;;;9.40;7.00;;;;;;;8.21;88.22;99454.98;125682;1316;115308;-61
2023/11/12 09:35:05;;;;;;;7.90;6.60;;;;;;;8.28;87.97;99454.23;126070;1314;114863;-61
2023/11/12 09:38:41;;;;;;;;;;;;;;;;;;;;;
2023/11/12 09:41:55;;;;;;;8.30;6.70;;;;;;;8.40;86.76;99454.50;126359;1296;114880;-63
2023/11/12 09:45:36;;;;;;;;;;;;;;;;;;;;;
2023/11/12 09:49:10;;;;;;;;;;;;;;;;;;;;;
2023/11/12 09:52:22;;;;;;;10.10;6.40;;;;;;;8.56;86.44;99447.95;125901;1308;114933;-63
2023/11/12 09:56:08;;;;;;;;;;;;;;;;;;;;;
2023/11/12 09:59:24;;;;;;;;;;;;;;;;;;;;;
2023/11/12 10:02:57;;;;;;;12.20;7.80;;;;;;;8.76;86.50;99444.36;126766;1290;127744;-65
2023/11/12 10:06:21;;;;;;;;;;;;;;;;;;;;;
2023/11/12 10:09:40;;;;;;;;;;;;;;;;;;;;;
2023/11/12 10:13:26;;;;;;;8.40;6.50;;;;;;;9.01;85.56;99431.02;127307;1302;115171;-61
2023/11/12 10:16:33;;;;;;;10.10;6.40;;;;;;;9.10;85.43;99426.20;127659;1286;115258;-63
2023/11/12 10:19:53;;;;;;;9.30;6.70;;;;;;;9.18;84.92;99425.63;127413;1281;129176;-62
2023/11/12 10:23:22;;;;;;;12.00;8.10;;;;;;;9.24;84.85;99420.64;127005;1304;115823;-62
2023/11/12 10:26:47;;;;;;;13.00;7.40;;;;;;;9.29;84.49;99424.94;127389;1286;115691;-62
2023/11/12 10:30:57;;;;;;;;;;;;;;;;;;;;;
2023/11/12 10:34:39;;;;;;;12.70;7.10;;;;;;;9.50;84.01;99426.98;125939;1295;115035;-64
2023/11/12 10:38:17;;;;;;;;;;;;;;;;;;;;;
2023/11/12 10:42:04;;;;;;;9.50;5.90;;;;;;;9.57;83.47;99432.98;127075;1307;114824;-62
2023/11/12 10:45:09;;;;;;;8.30;5.30;;;;;;;9.60;83.40;99429.39;126488;1293;114887;-62
2023/11/12 10:49:08;;;;;;;14.70;10.40;;;;;;;9.63;83.12;99431.70;126760;1289;115193;-64
2023/11/12 10:52:34;;;;;;;8.20;6.60;;;;;;;9.65;82.89;99431.41;127193;1304;114986;-65
2023/11/12 10:56:00;;;;;;;10.70;5.80;;;;;;;9.68;82.64;99429.66;126771;1302;128942;-63
2023/11/12 10:59:33;;;;;;;8.20;5.60;;;;;;;9.69;82.43;99431.30;127224;1283;115277;-62
2023/11/12 11:03:05;;;;;;;7.30;5.80;;;;;;;9.73;82.31;99428.13;126983;1286;114933;-64
2023/11/12 11:06:40;;;;;;;11.30;5.30;;;;;;;9.81;82.60;99423.48;127414;1282;114846;-65
2023/11/12 11:10:04;;;;;;;10.10;5.80;;;;;;;9.93;82.33;99424.96;127966;1271;115018;-63
2023/11/12 11:13:09;;;;;;;11.70;6.00;;;;;;;10.04;82.09;99421.05;129370;1270;129280;-63
2023/11/12 11:17:09;;;;;;;11.80;6.10;;;;;;;10.18;82.11;99420.73;128963;1271;115304;-64
2023/11/12 11:20:12;;;;;;;9.50;5.70;;;;;;;10.35;81.47;99419.84;129085;1268;114810;-63
2023/11/12 11:23:47;;;;;;;7.20;5.70;;;;;;;10.47;80.94;99418.92;129143;1288;115009;-62
2023/11/12 11:27:33;;;;;;;9.30;5.90;;;;;;;10.63;80.86;99417.61;129385;1285;114904;-64
2023/11/12 11:30:36;;;;;;;9.60;6.40;;;;;;;10.76;80.76;99419.07;129560;1274;128679;-63
2023/11/12 11:34:07;;;;;;;6.60;5.40;;;;;;;10.91;80.50;99414.58;129680;1262;114664;-64
2023/11/12 11:37:30;;;;;;;;;;;;;;;;;;;;;
2023/11/12 11:41:08;;;;;;;9.00;5.60;;;;;;;11.13;79.47;99422.09;130045;1262;114705;-65
2023/11/12 11:44:50;;;;;;;8.60;5.20;;;;;;;11.14;78.99;99418.73;129923;1267;114950;-65
2023/11/12 11:48:36;;;;;;;7.60;5.40;;;;;;;11.17;78.78;99423.52;129691;1278;127839;-64
2023/11/12 11:52:07;;;;;;;13.80;5.70;;;;;;;11.18;78.34;99426.74;129432;1268;115841;-64
2023/11/12 11:55:40;;;;;;;7.90;5.50;;;;;;;11.17;78.48;99427.00;129252;1277;114859;-65
2023/11/12 11:59:24;;;;;;;8.60;4.80;;;;;;;11.10;77.81;99428.34;128896;1277;114890;-63
2023/11/12 12:03:27;;;;;;;7.60;4.90;;;;;;;10.99;77.37;99433.68;127805;1299;114910;-64
2023/11/12 12:06:33;;;;;;;6.10;4.80;;;;;;;10.88;77.30;99430.10;128068;1283;129877;-64
2023/11/12 12:10:01;;;;;;;9.20;5.50;;;;;;;10.80;77.21;99437.38;128174;1283;115223;-63
2023/11/12 12:13:09;;;;;;;10.00;5.70;;;;;;;10.75;77.52;99442.02;127708;1284;114824;-63
2023/11/12 12:16:41;;;;;;;9.90;5.70;;;;;;;10.70;77.35;99440.52;127673;1286;115188;-64
2023/11/12 12:19:59;;;;;;;;;;;;;;;10.67;76.99;99440.52;126722;1286;114948;-63
2023/11/12 12:23:02;;;;;;;11.20;6.40;;;;;;;10.61;76.88;99443.58;127167;1287;127614;-64
2023/11/12 12:26:56;;;;;;;;;;;;;;;;;;;;;
2023/11/12 12:30:49;;;;;;;8.00;5.50;;;;;;;10.56;77.07;99445.89;127580;1283;114784;-66
2023/11/12 12:34:36;;;;;;;;;;;;;;;;;;;;;
2023/11/12 12:38:27;;;;;;;9.40;5.30;;;;;;;10.50;76.95;99445.55;125628;1311;115074;-61
2023/11/12 12:41:53;;;;;;;;;;;;;;;;;;;;;
2023/11/12 12:45:31;;;;;;;;;;;;;;;;;;;;;
2023/11/12 12:49:21;;;;;;;11.80;6.60;;;;;;;10.32;76.45;99448.97;126507;1289;114808;-63
2023/11/12 12:53:25;;;;;;;7.50;4.90;;;;;;;10.24;76.43;99452.81;126357;1293;114970;-65
2023/11/12 12:57:04;;;;;;;9.50;5.80;;;;;;;10.17;76.68;99451.30;125671;1298;115120;-61
2023/11/12 13:00:28;;;;;;;;;;;;;;;;;;;;;
2023/11/12 13:03:58;;;;;;;;;;;;;;;;;;;;;
2023/11/12 13:07:06;;;;;;;9.70;6.20;;;;;;;10.00;76.18;99456.06;125849;1294;114979;-64
2023/11/12 13:10:20;;;;;;;11.70;7.90;;;;;;;9.95;76.44;99458.02;126459;1305;114882;-62
2023/11/12 13:14:14;;;;;;;8.80;6.90;;;;;;;9.91;76.28;99462.14;126878;1304;115072;-63
2023/11/12 13:17:15;;;;;;;8.70;6.00;;;;;;;9.85;76.01;99462.13;126706;1286;128796;-61
2023/11/12 13:20:38;;;;;;;9.70;6.90;;;;;;;9.82;76.52;99468.42;127292;1285;115878;-64
2023/11/12 13:24:28;;;;;;;7.20;5.50;;;;;;;9.78;76.77;99467.75;127676;1285;114801;-65
2023/11/12 13:27:42;;;;;;;;;;;;;;;;;;;;;
2023/11/12 13:30:56;;;;;;;7.70;4.70;;;;;;;9.68;76.41;99476.54;126033;1313;114890;-64
2023/11/12 13:33:58;;;;;;;7.00;4.60;;;;;;;9.64;76.48;99481.06;127257;1301;129992;-62
2023/11/12 13:37:02;;;;;;;9.40;4.60;;;;;;;9.60;76.21;99484.33;127259;1302;114961;-62
2023/11/12 13:40:34;;;;;;;8.10;5.60;;;;;;;9.55;76.19;99490.83;127780;1302;114913;-63
2023/11/12 13:43:53;;;;;;;6.70;5.00;;;;;;;9.49;76.44;99493.85;127281;1286;114887;-63
2023/11/12 13:47:17;;;;;;;;;;;;;;;;;;;;;
2023/11/12 13:50:53;;;;;;;9.80;6.60;;;;;;;9.39;76.16;99491.74;127285;1285;129821;-63
2023/11/12 13:54:14;;;;;;;9.30;6.80;;;;;;;9.34;76.22;99498.48;127685;1287;114807;-64
2023/11/12 13:57:37;;;;;;;9.60;6.40;;;;;;;9.30;76.15;99498.69;128998;1276;114831;-63
2023/11/12 14:01:32;;;;;;;17.70;11.80;;;;;;;9.28;76.19;99500.93;129017;1268;114921;-63
2023/11/12 14:05:05;;;;;;;;;;;;;;;;;;;;;
2023/11/12 14:08:31;;;;;;;;;;;;;;;;;;;;;
2023/11/12 14:11:36;;;;;;;11.50;5.90;;;;;;;9.17;76.18;99504.25;130435;1256;115163;-63
2023/11/12 14:15:26;;;;;;;15.40;10.00;;;;;;;9.16;76.59;99508.59;130302;1265;114819;-62
2023/11/12 14:19:09;;;;;;;;;;;;;;;;;;;;;
2023/11/12 14:22:27;;;;;;;;;;;;;;;;;;;;;
2023/11/12 14:25:59;;;;;;;7.40;5.90;;;;;;;9.05;76.48;99518.77;130192;1261;128772;-64
2023/11/12 14:29:36;;;;;;;12.00;8.10;;;;;;;9.04;76.65;99517.43;129335;1274;116369;-65
2023/11/12 14:33:07;;;;;;;13.80;9.10;;;;;;;9.01;76.79;99517.23;129587;1279;114891;-62
2023/11/12 14:36:37;;;;;;;;;;;;;;;;;;;;;
2023/11/12 14:40:07;;;;;;;27.50;19.90;;;;;;;8.93;76.48;99515.35;129983;1261;114894;-62
2023/11/12 14:43:42;;;;;;;18.00;12.00;;;;;;;8.90;76.60;99517.84;129065;1264;127972;-62
2023/11/12 14:47:03;;;;;;;;;;;;;;;;;;;;;
2023/11/12 14:50:39;;;;;;;;;;;;;;;;;;;;;
2023/11/12 14:53:54;;;;;;;;;;;;;;;8.76;76.70;99523.91;129234;1270;114994;-63
2023/11/12 14:57:19;;;;;;;;;;;;;;;;;;;;;
2023/11/12 15:00:39;;;;;;;40.50;17.10;;;;;;;8.67;76.77;99527.64;129042;1269;128918;-62
2023/11/12 15:04:01;;;;;;;22.40;10.70;;;;;;;8.63;76.71;99523.41;128701;1279;115202;-62
2023/11/12 15:07:27;;;;;;;14.00;8.70;;;;;;;8.58;76.91;99519.58;128977;1270;115029;-62
2023/11/12 15:10:57;;;;;;;17.80;9.60;;;;;;;8.52;77.09;99520.80;129138;1278;114667;-62
2023/11/12 15:14:43;;;;;;;28.80;14.20;;;;;;;8.47;77.19;99519.06;129460;1269;114892;-63
2023/11/12 15:17:51;;;;;;;29.90;14.30;;;;;;;8.40;77.12;99528.48;129001;1288;128761;-63
2023/11/12 15:21:37;;;;;;;20.10;11.70;;;;;;;8.35;77.13;99521.27;129253;1276;114906;-63
2023/11/12 15:25:01;;;;;;;19.30;10.80;;;;;;;8.29;77.07;99529.99;129546;1266;114809;-62
2023/11/12 15:28:17;;;;;;;;;;;;;;;8.23;77.29;99532.77;130281;1257;114764;-64
2023/11/12 15:31:35;;;;;;;19.20;11.10;;;;;;;8.17;77.69;99534.48;130221;1255;114809;-62
2023/11/12 15:35:13;;;;;;;;;;;;;;;;;;;;;
2023/11/12 15:38:42;;;;;;;17.70;10.20;;;;;;;8.09;77.86;99547.52;130143;1261;114740;-64
2023/11/12 15:42:45;;;;;;;14.70;8.60;;;;;;;8.07;78.23;99552.61;130430;1261;114819;-65
2023/11/12 15:45:46;;;;;;;14.20;8.90;;;;;;;8.05;78.07;99546.86;129586;1273;115134;-67
2023/11/12 15:48:49;;;;;;;18.00;9.60;;;;;;;8.00;77.99;99549.59;129605;1266;114982;-64
2023/11/12 15:52:24;;;;;;;19.50;10.50;;;;;;;7.95;78.12;99544.86;129679;1262;114930;-64
2023/11/12 15:55:34;;;;;;;15.50;9.10;;;;;;;7.88;78.29;99546.61;129616;1268;114789;-65
2023/11/12 15:59:09;;;;;;;12.50;8.30;;;;;;;7.82;78.36;99550.34;129697;1267;114801;-67
2023/11/12 16:03:03;;;;;;;16.90;9.20;;;;;;;7.74;78.40;99550.70;129731;1267;115155;-66
2023/11/12 16:06:35;;;;;;;25.20;13.30;;;;;;;7.66;78.94;99553.78;129557;1270;114956;-64
2023/11/12 16:10:28;;;;;;;43.60;22.80;;;;;;;7.61;79.13;99558.66;129527;1264;129757;-65
2023/11/12 16:14:24;;;;;;;59.80;30.70;;;;;;;7.55;79.11;99556.80;129233;1269;115264;-69
2023/11/12 16:18:20;;;;;;;74.80;38.30;;;;;;;7.51;79.26;99558.63;129581;1266;114962;-66
2023/11/12 16:21:22;;;;;;;81.50;38.00;;;;;;;7.46;79.22;99558.30;129840;1275;114836;-63
2023/11/12 16:24:48;;;;;;;76.00;35.90;;;;;;;7.44;79.52;99560.54;130635;1274;114801;-64
2023/11/12 16:28:40;;;;;;;;;;;;;;;;;;;;;
2023/11/12 16:32:25;;;;;;;;;;;;;;;;;;;;;
2023/11/12 16:36:04;;;;;;;88.10;39.40;;;;;;;7.35;80.01;99560.42;129084;1267;115047;-64
2023/11/12 16:39:08;;;;;;;82.90;35.90;;;;;;;7.33;79.92;99561.27;129210;1274;114907;-64
2023/11/12 16:42:53;;;;;;;72.90;33.30;;;;;;;7.31;79.96;99564.71;129012;1276;115293;-64
2023/11/12 16:46:11;;;;;;;54.20;28.30;;;;;;;7.29;80.10;99566.92;129237;1287;128821;-64
2023/11/12 16:49:27;;;;;;;47.80;24.10;;;;;;;7.27;80.33;99567.92;129154;1272;114817;-65
2023/11/12 16:56:46;;;;;;;26.40;15.10;;;;;;;7.25;80.32;99577.23;129173;1271;115118;-65
2023/11/12 16:59:52;;;;;;;22.50;13.20;;;;;;;7.24;80.37;99580.32;129099;1271;115435;-66
2023/11/12 17:03:46;;;;;;;21.00;12.50;;;;;;;7.24;80.77;99582.64;129152;1271;128939;-64
2023/11/12 17:07:55;;;;;;;21.20;11.30;;;;;;;7.22;80.88;99589.63;128172;1273;115327;-64
2023/11/12 17:11:49;;;;;;;;;;;;;;;;;;;;;
2023/11/12 17:15:26;;;;;;;23.50;16.50;;;;;;;7.21;80.72;99593.80;128715;1279;114813;-65
2023/11/12 17:19:08;;;;;;;;;;;;;;;;;;;;;
2023/11/12 17:22:23;;;;;;;24.00;14.80;;;;;;;7.19;81.03;99598.47;130752;1251;127581;-64
2023/11/12 17:25:56;;;;;;;20.90;12.70;;;;;;;7.20;80.75;99601.48;130243;1254;115147;-66
2023/11/12 17:29:31;;;;;;;;;;;;;;;;;;;;;
2023/11/12 17:33:17;;;;;;;;;;;;;;;;;;;;;
2023/11/12 17:37:19;;;;;;;;;;;;;;;;;;;;;
2023/11/12 17:41:13;;;;;;;26.90;18.20;;;;;;;7.20;81.10;99610.13;127643;1285;128919;-64
2023/11/12 17:45:01;;;;;;;26.60;18.20;;;;;;;7.20;81.25;99608.02;126952;1279;115296;-65
2023/11/12 17:51:25;;;;;;;34.60;22.10;;;;;;;7.22;81.36;99617.33;118547;1264;977331;-70
2023/11/12 17:54:28;;;;;;;32.30;21.50;;;;;;;7.23;81.22;99622.27;129523;1264;114754;-68
2023/11/12 17:57:42;;;;;;;29.50;17.90;;;;;;;7.24;81.53;99622.95;130830;1258;115874;-67
2023/11/12 18:04:09;;;;;;;24.40;15.10;;;;;;;7.24;81.33;99626.70;124744;1259;114739;-61
2023/11/12 18:07:14;;;;;;;45.40;25.50;;;;;;;7.25;81.32;99633.05;131307;1258;114704;-65
2023/11/12 18:10:17;;;;;;;46.00;26.80;;;;;;;7.26;81.33;99637.42;129434;1281;114738;-67
2023/11/12 18:13:20;;;;;;;39.30;22.60;;;;;;;7.27;81.86;99644.14;129579;1262;115109;-68
2023/11/12 18:16:22;;;;;;;33.30;20.80;;;;;;;7.27;81.45;99647.14;129407;1266;115502;-64
2023/11/12 18:19:24;;;;;;;37.00;19.50;;;;;;;7.27;81.50;99647.67;129669;1274;114798;-66
2023/11/12 18:22:27;;;;;;;36.20;20.90;;;;;;;7.27;81.47;99652.48;129692;1262;114733;-66
2023/11/12 18:25:33;;;;;;;37.90;24.70;;;;;;;7.26;81.80;99655.18;129580;1260;114749;-67
2023/11/12 18:28:37;;;;;;;37.00;23.50;;;;;;;7.26;81.92;99657.85;129753;1259;115061;-67
2023/11/12 18:31:40;;;;;;;31.10;21.70;;;;;;;7.24;81.81;99659.15;129673;1262;128024;-66
2023/11/12 18:34:50;;;;;;;34.10;20.80;;;;;;;7.23;81.89;99658.52;129701;1261;114773;-66
2023/11/12 18:37:53;;;;;;;38.40;21.40;;;;;;;7.21;81.66;99656.13;129409;1260;114808;-66
2023/11/12 18:40:55;;;;;;;34.20;21.30;;;;;;;7.20;82.05;99651.55;129572;1275;114878;-66
2023/11/12 18:44:03;;;;;;;34.00;21.30;;;;;;;7.19;82.05;99654.61;129613;1259;114821;-65
2023/11/12 18:47:07;;;;;;;40.70;26.00;;;;;;;7.18;82.28;99654.84;129274;1267;127991;-65
2023/11/12 18:50:10;;;;;;;38.20;24.20;;;;;;;7.17;82.14;99652.04;129609;1262;115738;-66
2023/11/12 18:53:13;;;;;;;41.10;25.10;;;;;;;7.17;82.15;99652.05;129267;1267;115421;-65
2023/11/12 18:56:15;;;;;;;41.40;25.10;;;;;;;7.16;82.21;99655.27;129602;1268;114967;-66
2023/11/12 18:59:17;;;;;;;39.00;23.60;;;;;;;7.15;82.11;99656.04;129457;1259;114858;-67
2023/11/12 19:02:20;;;;;;;41.50;24.40;;;;;;;7.15;82.42;99654.58;129557;1281;114790;-65
2023/11/12 19:05:22;;;;;;;40.50;25.40;;;;;;;7.13;82.12;99655.77;129377;1270;128142;-67
2023/11/12 19:08:24;;;;;;;42.90;26.30;;;;;;;7.13;82.28;99658.98;129474;1263;115346;-65
2023/11/12 19:11:27;;;;;;;41.70;26.40;;;;;;;7.11;82.33;99663.14;129629;1259;115097;-65
2023/11/12 19:14:29;;;;;;;40.20;24.70;;;;;;;7.11;82.55;99665.09;129620;1264;114893;-64